createdAt,value
2018-12-12T00:00:32.780Z,3.54
2018-12-12T00:03:00.330Z,3.57
2018-12-12T00:05:27.878Z,3.58
2018-12-12T00:07:55.398Z,3.60
2018-12-12T00:10:22.923Z,3.62
2018-12-12T00:12:50.682Z,3.61
2018-12-12T00:15:18.628Z,3.63
2018-12-12T00:17:46.168Z,3.64
2018-12-12T00:20:13.790Z,3.64
2018-12-12T00:22:41.369Z,3.64
2018-12-12T00:25:08.997Z,3.66
2018-12-12T00:27:36.742Z,3.66
2018-12-12T00:30:04.470Z,3.66
2018-12-12T00:32:31.992Z,3.66
2018-12-12T00:34:59.655Z,3.64
2018-12-12T00:37:27.173Z,3.65
2018-12-12T00:39:54.701Z,3.62
2018-12-12T00:42:22.309Z,3.60
2018-12-12T00:44:49.827Z,3.58
2018-12-12T00:47:17.579Z,3.57
2018-12-12T00:49:45.119Z,3.55
2018-12-12T00:52:12.800Z,3.53
2018-12-12T00:54:40.470Z,3.48
2018-12-12T00:57:08.026Z,3.46
2018-12-12T00:59:35.626Z,3.43
2018-12-12T01:02:03.134Z,3.40
2018-12-12T01:04:30.725Z,3.39
2018-12-12T01:06:58.311Z,3.37
2018-12-12T01:09:25.929Z,3.37
2018-12-12T01:11:59.056Z,3.37
2018-12-12T01:14:26.608Z,3.38
2018-12-12T01:16:54.832Z,3.39
2018-12-12T01:19:22.504Z,3.40
2018-12-12T01:21:49.998Z,3.41
2018-12-12T01:24:17.544Z,3.42
2018-12-12T01:26:45.053Z,3.43
2018-12-12T01:29:12.778Z,3.45
2018-12-12T01:31:40.277Z,3.45
2018-12-12T01:34:07.754Z,3.46
2018-12-12T01:36:35.249Z,3.47
2018-12-12T01:39:03.371Z,3.48
2018-12-12T01:41:31.084Z,3.47
2018-12-12T01:43:58.566Z,3.47
2018-12-12T01:46:26.294Z,3.50
2018-12-12T01:48:53.912Z,3.50
2018-12-12T01:51:21.465Z,3.51
2018-12-12T01:53:49.004Z,3.53
2018-12-12T01:56:16.587Z,3.55
2018-12-12T01:58:44.116Z,3.54
2018-12-12T02:01:11.602Z,3.55
2018-12-12T02:03:39.150Z,3.54
2018-12-12T02:06:06.777Z,3.56
2018-12-12T02:08:34.264Z,3.57
2018-12-12T02:11:01.765Z,3.58
2018-12-12T02:13:35.016Z,3.59
2018-12-12T02:16:04.058Z,3.59
2018-12-12T02:18:33.070Z,3.61
2018-12-12T02:21:01.128Z,3.60
2018-12-12T02:23:28.665Z,3.61
2018-12-12T02:25:56.202Z,3.63
2018-12-12T02:28:23.867Z,3.64
2018-12-12T02:30:51.350Z,3.65
2018-12-12T02:33:18.841Z,3.66
2018-12-12T02:35:46.377Z,3.67
2018-12-12T02:38:13.899Z,3.67
2018-12-12T02:40:41.399Z,3.67
2018-12-12T02:43:08.937Z,3.67
2018-12-12T02:45:36.573Z,3.67
2018-12-12T02:48:04.060Z,3.66
2018-12-12T02:50:31.553Z,3.66
2018-12-12T02:52:59.161Z,3.66
2018-12-12T02:55:26.656Z,3.67
2018-12-12T02:57:54.293Z,3.69
2018-12-12T03:00:21.797Z,3.68
2018-12-12T03:02:49.286Z,3.70
2018-12-12T03:05:16.792Z,3.71
2018-12-12T03:07:44.279Z,3.72
2018-12-12T03:10:11.889Z,3.72
2018-12-12T03:12:39.368Z,3.69
2018-12-12T03:15:06.881Z,3.72
2018-12-12T03:17:34.436Z,3.71
2018-12-12T03:20:01.921Z,3.71
2018-12-12T03:22:29.601Z,3.71
2018-12-12T03:24:57.155Z,3.71
2018-12-12T03:27:24.637Z,3.70
2018-12-12T03:29:52.200Z,3.71
2018-12-12T03:32:19.757Z,3.71
2018-12-12T03:34:47.400Z,3.72
2018-12-12T03:37:14.879Z,3.71
2018-12-12T03:39:42.350Z,3.69
2018-12-12T03:42:09.988Z,3.71
2018-12-12T03:44:37.787Z,3.70
2018-12-12T03:47:05.310Z,3.69
2018-12-12T03:49:32.955Z,3.71
2018-12-12T03:52:00.449Z,3.72
2018-12-12T03:54:27.927Z,3.71
2018-12-12T03:56:55.491Z,3.72
2018-12-12T03:59:22.968Z,3.72
2018-12-12T04:01:50.475Z,3.71
2018-12-12T04:04:18.008Z,3.69
2018-12-12T04:06:45.516Z,3.70
2018-12-12T04:09:12.994Z,3.72
2018-12-12T04:11:40.537Z,3.71
2018-12-12T04:14:08.026Z,3.71
2018-12-12T04:16:35.862Z,3.69
2018-12-12T04:19:03.559Z,3.69
2018-12-12T04:21:31.084Z,3.70
2018-12-12T04:23:58.648Z,3.67
2018-12-12T04:26:26.409Z,3.68
2018-12-12T04:28:53.923Z,3.69
2018-12-12T04:31:21.397Z,3.71
2018-12-12T04:33:48.920Z,3.70
2018-12-12T04:36:16.458Z,3.71
2018-12-12T04:38:44.003Z,3.70
2018-12-12T04:41:11.608Z,3.70
2018-12-12T04:43:39.094Z,3.70
2018-12-12T04:46:06.606Z,3.73
2018-12-12T04:48:34.164Z,3.72
2018-12-12T04:51:01.814Z,3.73
2018-12-12T04:53:29.305Z,3.74
2018-12-12T04:55:56.795Z,3.74
2018-12-12T04:58:24.476Z,3.76
2018-12-12T05:00:51.977Z,3.75
2018-12-12T05:03:19.502Z,3.75
2018-12-12T05:05:47.037Z,3.75
2018-12-12T05:08:14.515Z,3.76
2018-12-12T05:10:42.119Z,3.77
2018-12-12T05:13:09.596Z,3.77
2018-12-12T05:15:37.131Z,3.78
2018-12-12T05:18:04.669Z,3.77
2018-12-12T05:20:32.232Z,3.77
2018-12-12T05:22:59.761Z,3.78
2018-12-12T05:25:27.347Z,3.78
2018-12-12T05:27:54.841Z,3.79
2018-12-12T05:30:22.454Z,3.78
2018-12-12T05:32:49.936Z,3.77
2018-12-12T05:35:17.421Z,3.77
2018-12-12T05:37:50.675Z,3.78
2018-12-12T05:40:14.649Z,3.76
2018-12-12T05:42:42.319Z,3.76
2018-12-12T05:45:09.821Z,3.72
2018-12-12T05:47:37.346Z,3.70
2018-12-12T05:50:04.913Z,3.73
2018-12-12T05:52:32.433Z,3.73
2018-12-12T05:54:59.964Z,3.72
2018-12-12T05:57:27.563Z,3.71
2018-12-12T05:59:55.043Z,3.70
2018-12-12T06:02:22.576Z,3.67
2018-12-12T06:04:50.082Z,3.65
2018-12-12T06:07:17.602Z,3.62
2018-12-12T06:09:45.142Z,3.59
2018-12-12T06:12:12.680Z,3.57
2018-12-12T06:14:40.306Z,3.56
2018-12-12T06:17:07.849Z,3.51
2018-12-12T06:19:35.845Z,3.51
2018-12-12T06:22:03.352Z,3.46
2018-12-12T06:24:30.967Z,3.41
2018-12-12T06:26:58.478Z,3.38
2018-12-12T06:29:26.019Z,3.35
2018-12-12T06:31:53.528Z,3.35
2018-12-12T06:34:21.011Z,3.33
2018-12-12T06:36:48.768Z,3.31
2018-12-12T06:39:16.245Z,3.30
2018-12-12T06:41:43.724Z,3.29
2018-12-12T06:44:11.244Z,3.27
2018-12-12T06:46:38.722Z,3.25
2018-12-12T06:49:06.221Z,3.23
2018-12-12T06:51:33.725Z,3.19
2018-12-12T06:54:01.264Z,3.13
2018-12-12T06:56:28.761Z,3.07
2018-12-12T06:58:56.238Z,3.05
2018-12-12T07:01:23.733Z,3.02
2018-12-12T07:03:51.220Z,2.99
2018-12-12T07:06:18.708Z,2.96
2018-12-12T07:08:46.372Z,2.91
2018-12-12T07:11:13.862Z,2.87
2018-12-12T07:13:41.371Z,2.83
2018-12-12T07:16:08.872Z,2.81
2018-12-12T07:18:36.389Z,2.78
2018-12-12T07:21:03.923Z,2.76
2018-12-12T07:23:31.509Z,2.73
2018-12-12T07:25:59.014Z,2.68
2018-12-12T07:28:26.569Z,2.66
2018-12-12T07:30:54.047Z,2.64
2018-12-12T07:33:21.610Z,2.62
2018-12-12T07:35:49.157Z,2.61
2018-12-12T07:38:16.670Z,2.61
2018-12-12T07:40:44.173Z,2.60
2018-12-12T07:43:11.691Z,2.57
2018-12-12T07:45:39.166Z,2.58
2018-12-12T07:48:06.660Z,2.59
2018-12-12T07:50:34.158Z,2.59
2018-12-12T07:53:01.641Z,2.61
2018-12-12T07:55:29.299Z,2.63
2018-12-12T07:57:56.822Z,2.64
2018-12-12T08:00:24.328Z,2.65
2018-12-12T08:02:52.131Z,2.68
2018-12-12T08:05:19.607Z,2.67
2018-12-12T08:07:47.185Z,2.68
2018-12-12T08:10:14.668Z,2.70
2018-12-12T08:12:42.153Z,2.72
2018-12-12T08:15:09.689Z,2.74
2018-12-12T08:17:37.228Z,2.75
2018-12-12T08:20:05.003Z,2.78
2018-12-12T08:22:32.486Z,2.79
2018-12-12T08:25:00.006Z,2.82
2018-12-12T08:27:27.511Z,2.84
2018-12-12T08:29:55.025Z,2.88
2018-12-12T08:32:22.538Z,2.89
2018-12-12T08:34:50.313Z,2.94
2018-12-12T08:37:17.962Z,2.96
2018-12-12T08:39:45.449Z,2.98
2018-12-12T08:42:12.962Z,3.00
2018-12-12T08:44:40.585Z,3.03
2018-12-12T08:47:08.075Z,3.06
2018-12-12T08:49:35.610Z,3.08
2018-12-12T08:52:03.512Z,3.12
2018-12-12T08:54:31.140Z,3.14
2018-12-12T08:56:58.830Z,3.17
2018-12-12T08:59:26.322Z,3.20
2018-12-12T09:01:53.824Z,3.23
2018-12-12T09:04:21.502Z,3.24
2018-12-12T09:06:48.986Z,3.27
2018-12-12T09:09:16.478Z,3.29
2018-12-12T09:11:44.014Z,3.33
2018-12-12T09:14:11.509Z,3.36
2018-12-12T09:16:39.075Z,3.40
2018-12-12T09:19:06.560Z,3.42
2018-12-12T09:21:34.096Z,3.45
2018-12-12T09:24:01.621Z,3.49
2018-12-12T09:26:29.138Z,3.52
2018-12-12T09:28:56.743Z,3.55
2018-12-12T09:31:24.224Z,3.58
2018-12-12T09:33:51.778Z,3.59
2018-12-12T09:36:19.311Z,3.63
2018-12-12T09:38:46.793Z,3.66
2018-12-12T09:41:14.366Z,3.69
2018-12-12T09:43:41.893Z,3.72
2018-12-12T09:46:09.411Z,3.76
2018-12-12T09:48:37.314Z,3.80
2018-12-12T09:51:07.233Z,3.84
2018-12-12T09:53:34.314Z,3.86
2018-12-12T09:56:01.804Z,3.87
2018-12-12T09:58:29.330Z,3.91
2018-12-12T10:00:56.849Z,3.93
2018-12-12T10:03:24.353Z,3.96
2018-12-12T10:05:51.958Z,4.00
2018-12-12T10:08:19.447Z,4.04
2018-12-12T10:10:46.992Z,4.08
2018-12-12T10:13:14.578Z,4.13
2018-12-12T10:15:42.102Z,4.16
2018-12-12T10:18:09.714Z,4.20
2018-12-12T10:20:37.193Z,4.24
2018-12-12T10:23:04.711Z,4.29
2018-12-12T10:25:32.237Z,4.34
2018-12-12T10:27:59.964Z,4.39
2018-12-12T10:30:27.530Z,4.40
2018-12-12T10:32:55.383Z,4.42
2018-12-12T10:35:22.886Z,4.47
2018-12-12T10:37:50.382Z,4.51
2018-12-12T10:40:17.884Z,4.55
2018-12-12T10:42:45.376Z,4.60
2018-12-12T10:45:12.897Z,4.63
2018-12-12T10:47:40.417Z,4.66
2018-12-12T10:50:08.053Z,4.68
2018-12-12T10:52:35.552Z,4.74
2018-12-12T10:55:03.137Z,4.80
2018-12-12T10:57:30.650Z,4.78
2018-12-12T10:59:58.290Z,4.79
2018-12-12T11:02:30.368Z,4.82
2018-12-12T11:04:58.161Z,4.85
2018-12-12T11:07:25.802Z,4.86
2018-12-12T11:09:53.379Z,4.90
2018-12-12T11:12:20.878Z,4.95
2018-12-12T11:14:48.528Z,4.98
2018-12-12T11:17:16.028Z,5.05
2018-12-12T11:19:43.520Z,5.04
2018-12-12T11:22:11.166Z,5.07
2018-12-12T11:24:39.023Z,5.05
2018-12-12T11:27:06.519Z,5.09
2018-12-12T11:29:34.029Z,5.10
2018-12-12T11:32:01.525Z,5.09
2018-12-12T11:34:29.057Z,5.15
2018-12-12T11:36:56.546Z,5.15
2018-12-12T11:39:24.067Z,5.13
2018-12-12T11:41:51.575Z,5.16
2018-12-12T11:44:19.341Z,5.18
2018-12-12T11:46:46.979Z,5.22
2018-12-12T11:49:14.472Z,5.26
2018-12-12T11:51:41.950Z,5.29
2018-12-12T11:54:09.568Z,5.30
2018-12-12T11:56:37.500Z,5.31
2018-12-12T11:59:04.993Z,5.34
2018-12-12T12:01:32.569Z,5.34
2018-12-12T12:04:00.052Z,5.36
2018-12-12T12:06:27.612Z,5.38
2018-12-12T12:08:55.149Z,5.39
2018-12-12T12:11:22.758Z,5.42
2018-12-12T12:13:50.273Z,5.44
2018-12-12T12:16:17.768Z,5.46
2018-12-12T12:18:45.321Z,5.47
2018-12-12T12:21:12.871Z,5.48
2018-12-12T12:23:40.397Z,5.46
2018-12-12T12:26:07.890Z,5.52
2018-12-12T12:28:35.515Z,5.51
2018-12-12T12:31:03.002Z,5.49
2018-12-12T12:33:30.530Z,5.47
2018-12-12T12:35:58.035Z,5.49
2018-12-12T12:38:25.697Z,5.48
2018-12-12T12:40:53.182Z,5.49
2018-12-12T12:43:20.724Z,5.49
2018-12-12T12:45:48.291Z,5.49
2018-12-12T12:48:15.766Z,5.51
2018-12-12T12:50:44.186Z,5.48
2018-12-12T12:53:11.943Z,5.54
2018-12-12T12:55:39.482Z,5.56
2018-12-12T12:58:07.033Z,5.59
2018-12-12T13:00:34.516Z,5.61
2018-12-12T13:03:02.007Z,5.63
2018-12-12T13:05:29.702Z,5.62
2018-12-12T13:07:57.243Z,5.63
2018-12-12T13:10:24.721Z,5.64
2018-12-12T13:12:52.516Z,5.62
2018-12-12T13:15:20.280Z,5.58
2018-12-12T13:17:47.878Z,5.60
2018-12-12T13:20:15.377Z,5.59
2018-12-12T13:22:42.919Z,5.55
2018-12-12T13:25:10.468Z,5.59
2018-12-12T13:27:37.962Z,5.56
2018-12-12T13:30:05.617Z,5.57
2018-12-12T13:32:33.113Z,5.58
2018-12-12T13:35:00.660Z,5.57
2018-12-12T13:37:28.201Z,5.57
2018-12-12T13:39:55.692Z,5.57
2018-12-12T13:42:23.223Z,5.56
2018-12-12T13:44:50.764Z,5.53
2018-12-12T13:47:18.325Z,5.52
2018-12-12T13:49:45.810Z,5.51
2018-12-12T13:52:13.316Z,5.50
2018-12-12T13:54:40.816Z,5.48
2018-12-12T13:57:08.361Z,5.48
2018-12-12T13:59:35.840Z,5.48
2018-12-12T14:02:03.547Z,5.42
2018-12-12T14:04:31.032Z,5.45
2018-12-12T14:06:58.511Z,5.41
2018-12-12T14:09:26.394Z,5.39
2018-12-12T14:11:54.024Z,5.38
2018-12-12T14:14:21.548Z,5.36
2018-12-12T14:16:49.026Z,5.35
2018-12-12T14:19:16.667Z,5.33
2018-12-12T14:21:44.153Z,5.32
2018-12-12T14:24:11.638Z,5.33
2018-12-12T14:26:39.204Z,5.37
2018-12-12T14:29:06.748Z,5.40
2018-12-12T14:31:34.279Z,5.37
2018-12-12T14:34:01.772Z,5.34
2018-12-12T14:36:29.261Z,5.29
2018-12-12T14:38:56.913Z,5.22
2018-12-12T14:41:24.451Z,5.19
2018-12-12T14:43:52.011Z,5.16
2018-12-12T14:46:19.519Z,5.15
2018-12-12T14:48:47.083Z,5.11
2018-12-12T14:51:14.574Z,5.06
2018-12-12T14:53:42.055Z,5.00
2018-12-12T14:56:09.656Z,4.94
2018-12-12T14:58:37.173Z,4.89
2018-12-12T15:01:04.720Z,4.87
2018-12-12T15:03:32.258Z,4.82
2018-12-12T15:05:59.728Z,4.76
2018-12-12T15:08:27.206Z,4.73
2018-12-12T15:10:54.706Z,4.68
2018-12-12T15:13:22.279Z,4.64
2018-12-12T15:15:49.764Z,4.59
2018-12-12T15:18:18.365Z,4.57
2018-12-12T15:20:46.121Z,4.55
2018-12-12T15:23:13.666Z,4.51
2018-12-12T15:25:41.196Z,4.48
2018-12-12T15:28:08.743Z,4.44
2018-12-12T15:30:36.279Z,4.41
2018-12-12T15:33:03.901Z,4.36
2018-12-12T15:35:31.392Z,4.32
2018-12-12T15:37:58.908Z,4.28
2018-12-12T15:40:26.647Z,4.23
2018-12-12T15:42:54.153Z,4.20
2018-12-12T15:45:21.677Z,4.16
2018-12-12T15:47:49.262Z,4.14
2018-12-12T15:50:16.756Z,4.10
2018-12-12T15:52:44.251Z,4.03
2018-12-12T15:55:11.758Z,4.03
2018-12-12T15:57:39.348Z,3.97
2018-12-12T16:00:07.672Z,3.92
2018-12-12T16:02:35.199Z,3.85
2018-12-12T16:05:02.687Z,3.83
2018-12-12T16:07:30.338Z,3.79
2018-12-12T16:09:57.835Z,3.78
2018-12-12T16:12:25.337Z,3.77
2018-12-12T16:14:52.836Z,3.78
2018-12-12T16:17:20.321Z,3.75
2018-12-12T16:19:47.972Z,3.77
2018-12-12T16:22:15.464Z,3.78
2018-12-12T16:24:43.078Z,3.81
2018-12-12T16:27:10.694Z,3.82
2018-12-12T16:29:38.228Z,3.83
2018-12-12T16:32:05.732Z,3.82
2018-12-12T16:34:33.338Z,3.81
2018-12-12T16:37:00.891Z,3.82
2018-12-12T16:39:28.517Z,3.81
2018-12-12T16:41:56.025Z,3.83
2018-12-12T16:44:23.513Z,3.82
2018-12-12T16:46:51.053Z,3.84
2018-12-12T16:49:18.537Z,3.84
2018-12-12T16:51:46.042Z,3.84
2018-12-12T16:54:13.555Z,3.86
2018-12-12T16:56:41.067Z,3.86
2018-12-12T16:59:08.543Z,3.85
2018-12-12T17:01:36.016Z,3.85
2018-12-12T17:04:03.517Z,3.85
2018-12-12T17:06:31.019Z,3.85
2018-12-12T17:08:58.574Z,3.84
2018-12-12T17:11:26.061Z,3.85
2018-12-12T17:13:53.542Z,3.87
2018-12-12T17:16:21.047Z,3.87
2018-12-12T17:18:48.579Z,3.89
2018-12-12T17:21:16.103Z,3.91
2018-12-12T17:23:43.602Z,3.90
2018-12-12T17:26:11.097Z,3.88
2018-12-12T17:28:38.631Z,3.88
2018-12-12T17:31:06.208Z,3.89
2018-12-12T17:33:33.754Z,3.91
2018-12-12T17:36:01.279Z,3.88
2018-12-12T17:38:28.784Z,3.88
2018-12-12T17:40:56.293Z,3.89
2018-12-12T17:43:23.801Z,3.90
2018-12-12T17:45:51.418Z,3.91
2018-12-12T17:48:18.904Z,3.93
2018-12-12T17:50:46.385Z,3.95
2018-12-12T17:53:13.894Z,3.94
2018-12-12T17:55:41.414Z,3.94
2018-12-12T17:58:08.906Z,3.94
2018-12-12T18:00:36.474Z,3.95
2018-12-12T18:03:04.233Z,3.95
2018-12-12T18:05:31.710Z,3.94
2018-12-12T18:07:59.189Z,3.93
2018-12-12T18:10:26.693Z,3.92
2018-12-12T18:12:54.187Z,3.92
2018-12-12T18:15:21.699Z,3.90
2018-12-12T18:17:49.196Z,3.86
2018-12-12T18:20:16.812Z,3.85
2018-12-12T18:22:44.283Z,3.84
2018-12-12T18:25:11.798Z,3.81
2018-12-12T18:27:39.419Z,3.75
2018-12-12T18:30:07.498Z,3.69
2018-12-12T18:32:35.018Z,3.68
2018-12-12T18:35:02.567Z,3.66
2018-12-12T18:37:30.061Z,3.63
2018-12-12T18:39:57.606Z,3.62
2018-12-12T18:42:25.095Z,3.61
2018-12-12T18:44:52.597Z,3.58
2018-12-12T18:47:20.333Z,3.56
2018-12-12T18:49:47.814Z,3.54
2018-12-12T18:52:15.299Z,3.50
2018-12-12T18:54:42.884Z,3.49
2018-12-12T18:57:10.377Z,3.47
2018-12-12T18:59:37.873Z,3.42
2018-12-12T19:02:05.744Z,3.37
2018-12-12T19:04:33.243Z,3.36
2018-12-12T19:07:00.801Z,3.36
2018-12-12T19:09:28.342Z,3.36
2018-12-12T19:11:55.834Z,3.31
2018-12-12T19:14:23.376Z,3.29
2018-12-12T19:16:50.867Z,3.29
2018-12-12T19:19:18.542Z,3.29
2018-12-12T19:21:46.048Z,3.27
2018-12-12T19:24:13.659Z,3.26
2018-12-12T19:26:41.136Z,3.23
2018-12-12T19:29:08.708Z,3.22
2018-12-12T19:31:36.250Z,3.21
2018-12-12T19:34:03.909Z,3.19
2018-12-12T19:36:31.415Z,3.18
2018-12-12T19:38:58.901Z,3.19
2018-12-12T19:41:26.593Z,3.19
2018-12-12T19:43:54.115Z,3.21
2018-12-12T19:46:21.606Z,3.23
2018-12-12T19:48:49.340Z,3.24
2018-12-12T19:51:16.843Z,3.23
2018-12-12T19:53:44.691Z,3.26
2018-12-12T19:56:12.346Z,3.27
2018-12-12T19:58:39.842Z,3.27
2018-12-12T20:01:07.330Z,3.30
2018-12-12T20:03:34.879Z,3.29
2018-12-12T20:06:02.411Z,3.28
2018-12-12T20:08:30.032Z,3.30
2018-12-12T20:10:57.542Z,3.31
2018-12-12T20:13:25.900Z,3.30
2018-12-12T20:15:53.397Z,3.30
2018-12-12T20:18:21.123Z,3.30
2018-12-12T20:20:48.671Z,3.30
2018-12-12T20:23:16.199Z,3.29
2018-12-12T20:25:43.749Z,3.27
2018-12-12T20:28:11.250Z,3.26
2018-12-12T20:30:38.917Z,3.24
2018-12-12T20:33:06.497Z,3.23
2018-12-12T20:35:34.018Z,3.21
2018-12-12T20:38:01.525Z,3.16
2018-12-12T20:40:29.019Z,3.16
2018-12-12T20:42:56.601Z,3.12
2018-12-12T20:45:24.118Z,3.11
2018-12-12T20:47:51.609Z,3.06
2018-12-12T20:50:19.296Z,3.02
2018-12-12T20:52:46.782Z,2.99
2018-12-12T20:55:14.263Z,2.97
2018-12-12T20:57:41.931Z,2.96
2018-12-12T21:00:09.417Z,2.95
2018-12-12T21:02:36.912Z,2.93
2018-12-12T21:05:04.462Z,2.91
2018-12-12T21:07:31.995Z,2.87
2018-12-12T21:09:59.786Z,2.85
2018-12-12T21:12:27.307Z,2.82
2018-12-12T21:14:54.827Z,2.78
2018-12-12T21:17:22.332Z,2.77
2018-12-12T21:19:49.868Z,2.75
2018-12-12T21:22:17.528Z,2.72
2018-12-12T21:24:45.055Z,2.69
2018-12-12T21:27:12.557Z,2.66
2018-12-12T21:29:40.104Z,2.65
2018-12-12T21:32:07.653Z,2.64
2018-12-12T21:34:35.202Z,2.62
2018-12-12T21:37:02.717Z,2.60
2018-12-12T21:39:30.229Z,2.57
2018-12-12T21:41:57.737Z,2.55
2018-12-12T21:44:25.256Z,2.54
2018-12-12T21:46:52.788Z,2.51
2018-12-12T21:49:20.321Z,2.50
2018-12-12T21:51:47.803Z,2.49
2018-12-12T21:54:15.449Z,2.46
2018-12-12T21:56:42.973Z,2.43
2018-12-12T21:59:10.519Z,2.42
2018-12-12T22:01:38.143Z,2.38
2018-12-12T22:04:05.864Z,2.37
2018-12-12T22:06:33.345Z,2.36
2018-12-12T22:09:00.853Z,2.34
2018-12-12T22:11:28.379Z,2.34
2018-12-12T22:13:55.956Z,2.32
2018-12-12T22:16:23.491Z,2.30
2018-12-12T22:18:50.991Z,2.28
2018-12-12T22:21:18.618Z,2.26
2018-12-12T22:23:46.102Z,2.24
2018-12-12T22:26:13.581Z,2.23
2018-12-12T22:28:41.199Z,2.19
2018-12-12T22:31:08.698Z,2.16
2018-12-12T22:33:36.168Z,2.15
2018-12-12T22:36:03.735Z,2.14
2018-12-12T22:38:32.363Z,2.12
2018-12-12T22:41:00.089Z,2.13
2018-12-12T22:43:27.611Z,2.09
2018-12-12T22:45:55.157Z,2.08
2018-12-12T22:48:22.639Z,2.06
2018-12-12T22:50:50.167Z,2.03
2018-12-12T22:53:17.680Z,2.02
2018-12-12T22:55:45.174Z,2.04
2018-12-12T22:58:12.748Z,2.03
2018-12-12T23:00:40.471Z,2.05
2018-12-12T23:03:08.018Z,2.08
2018-12-12T23:05:35.674Z,2.09
2018-12-12T23:08:03.168Z,2.10
2018-12-12T23:10:30.644Z,2.12
2018-12-12T23:12:58.259Z,2.13
2018-12-12T23:15:25.754Z,2.13
2018-12-12T23:17:53.243Z,2.15
2018-12-12T23:20:20.748Z,2.17
2018-12-12T23:22:48.232Z,2.19
2018-12-12T23:25:15.847Z,2.19
2018-12-12T23:27:43.331Z,2.19
2018-12-12T23:30:10.904Z,2.20
2018-12-12T23:32:38.626Z,2.24
2018-12-12T23:35:06.113Z,2.24
2018-12-12T23:37:33.607Z,2.25
2018-12-12T23:40:01.153Z,2.28
2018-12-12T23:42:28.642Z,2.29
2018-12-12T23:44:56.141Z,2.27
2018-12-12T23:47:23.675Z,2.31
2018-12-12T23:49:51.161Z,2.31
2018-12-12T23:52:18.656Z,2.32
2018-12-12T23:54:46.264Z,2.34
2018-12-12T23:57:13.750Z,2.34
2018-12-12T23:59:41.233Z,2.38
